Time;durP1;ratioP1;P1;durP2;ratioP2;P2;SDS_P1;SDS_P2;PMS_P1;PMS_P2;Temp;Humidity;BMP_temperature;BMP_pressure;BME280_temperature;BME280_humidity;BME280_pressure;Samples;Min_cycle;Max_cycle;Signal;HPM_P1;HPM_P2
2022/11/28 00:13:44;;;;;;;5.95;3.05;;;6.30;99.90;;;;;;6401441;22;20049;-93
2022/11/28 00:16:20;;;;;;;6.05;2.83;;;6.30;99.90;;;;;;6349680;22;20024;-93
2022/11/28 00:23:55;;;;;;;6.38;2.80;;;6.30;99.90;;;;;;6371912;22;20025;-93
2022/11/28 00:26:25;;;;;;;6.90;2.70;;;6.30;99.90;;;;;;6318498;22;20019;-93
2022/11/28 00:41:50;;;;;;;6.68;2.80;;;6.30;99.90;;;;;;6376927;22;20018;-91
2022/11/28 00:44:16;;;;;;;8.70;3.38;;;6.30;99.90;;;;;;6350291;22;20021;-91
2022/11/28 00:46:42;;;;;;;6.27;2.30;;;6.30;99.90;;;;;;6323430;22;20014;-95
2022/11/28 00:49:08;;;;;;;6.55;2.80;;;6.30;99.90;;;;;;6349478;22;20142;-95
2022/11/28 00:52:17;;;;;;;6.27;2.60;;;6.30;99.90;;;;;;6349719;22;20029;-91
2022/11/28 02:06:49;;;;;;;8.65;2.70;;;6.50;99.90;;;;;;6403691;22;20018;-94
2022/11/28 02:09:17;;;;;;;8.23;3.40;;;6.50;99.90;;;;;;6351123;22;20018;-95
2022/11/28 02:12:08;;;;;;;6.57;3.25;;;6.50;99.90;;;;;;6375562;22;20010;-93
2022/11/28 02:14:40;;;;;;;7.40;2.97;;;6.60;99.90;;;;;;6375871;22;20049;-92
2022/11/28 02:17:43;;;;;;;12.18;3.10;;;6.50;99.90;;;;;;6375602;22;20016;-93
2022/11/28 02:20:28;;;;;;;6.68;2.75;;;6.50;99.90;;;;;;6375490;22;20010;-96
2022/11/28 02:23:08;;;;;;;7.72;3.10;;;6.60;99.90;;;;;;6375060;22;20045;-95
2022/11/28 03:59:07;;;;;;;8.43;3.67;;;6.50;99.90;;;;;;6412830;22;20009;-94
2022/11/28 04:01:42;;;;;;;8.75;3.85;;;6.50;99.90;;;;;;6380164;22;20454;-96
2022/11/28 04:04:11;;;;;;;8.13;4.30;;;6.50;99.90;;;;;;6376454;22;20010;-95
2022/11/28 04:33:00;;;;;;;8.75;4.57;;;6.60;99.90;;;;;;6421358;22;20022;-92
2022/11/28 04:35:32;;;;;;;10.23;4.28;;;6.60;99.90;;;;;;6384483;22;20033;-89
2022/11/28 04:38:00;;;;;;;7.45;4.13;;;6.60;99.90;;;;;;6383392;22;20021;-93
2022/11/28 05:55:59;;;;;;;9.32;5.05;;;7.10;99.90;;;;;;6404561;22;20022;-96
2022/11/28 05:58:25;;;;;;;10.15;5.45;;;7.20;99.90;;;;;;6377016;22;20025;-93
2022/11/28 06:00:50;;;;;;;10.47;5.90;;;7.20;99.90;;;;;;6351374;22;20010;-93
2022/11/28 06:26:35;;;;;;;10.23;5.72;;;7.30;99.90;;;;;;6378118;22;20023;-95
2022/11/28 06:34:53;;;;;;;9.25;5.35;;;7.30;99.90;;;;;;6375730;22;20335;-96
2022/11/28 06:37:18;;;;;;;9.70;4.97;;;7.40;99.90;;;;;;6310953;22;20022;-95
2022/11/28 10:37:19;;;;;;;4.35;1.92;;;8.00;99.90;;;;;;6402132;22;20037;-95
2022/11/28 10:39:46;;;;;;;4.25;1.90;;;8.00;99.90;;;;;;6381044;22;20066;-89
2022/11/28 10:42:17;;;;;;;4.55;1.80;;;8.10;99.90;;;;;;6382933;22;20014;-90
2022/11/28 10:48:52;;;;;;;;;;;8.10;99.90;;;;;;6414713;22;20040;-92
2022/11/28 10:51:37;;;;;;;4.88;1.88;;;8.10;99.90;;;;;;6407748;22;20284;-95
2022/11/28 11:15:29;;;;;;;4.18;1.75;;;8.20;99.90;;;;;;6373190;22;20431;-96
2022/11/28 11:17:55;;;;;;;4.68;1.67;;;8.20;99.90;;;;;;6320355;22;20022;-96
2022/11/28 11:20:39;;;;;;;5.13;1.73;;;8.30;99.90;;;;;;6325921;22;20046;-96
2022/11/28 11:23:20;;;;;;;4.88;1.88;;;8.30;99.90;;;;;;6326187;22;20014;-96
2022/11/28 11:25:53;;;;;;;6.03;2.20;;;8.30;99.90;;;;;;6329594;22;20026;-96
2022/11/28 11:28:31;;;;;;;6.03;2.10;;;8.30;99.90;;;;;;6325931;22;20473;-96
2022/11/28 11:31:03;;;;;;;5.55;2.47;;;8.30;99.90;;;;;;6323821;22;20079;-95
2022/11/28 11:33:36;;;;;;;66.28;37.95;;;8.30;99.90;;;;;;6327409;22;20022;-96
2022/11/28 15:46:33;;;;;;;6.35;2.85;;;8.80;99.90;;;;;;6419566;22;20005;-93
2022/11/28 15:49:00;;;;;;;5.82;2.63;;;8.80;99.90;;;;;;6404863;22;20035;-93
2022/11/28 15:52:09;;;;;;;6.57;2.83;;;8.80;99.90;;;;;;6395157;22;20014;-92
2022/11/28 15:54:39;;;;;;;8.23;3.10;;;8.80;99.90;;;;;;6379149;22;20020;-95
2022/11/28 15:57:06;;;;;;;7.10;3.35;;;8.80;99.90;;;;;;6381641;22;20014;-94
2022/11/28 16:10:02;;;;;;;9.00;3.83;;;8.80;99.90;;;;;;6410673;22;20022;-90
2022/11/28 16:12:33;;;;;;;8.35;3.50;;;8.80;99.90;;;;;;6376580;22;20453;-94
2022/11/28 16:19:27;;;;;;;9.10;3.30;;;8.80;99.90;;;;;;6408093;22;20054;-94
2022/11/28 16:22:01;;;;;;;9.10;3.63;;;8.80;99.90;;;;;;6414768;22;20041;-93
2022/11/28 16:24:41;;;;;;;9.55;3.67;;;8.80;99.90;;;;;;6380499;22;20049;-94
2022/11/28 16:27:29;;;;;;;7.55;3.17;;;8.80;99.90;;;;;;6384250;22;20446;-93
2022/11/28 16:46:32;;;;;;;10.32;4.10;;;8.80;99.90;;;;;;6403310;22;20018;-90
2022/11/28 16:48:59;;;;;;;12.73;4.18;;;8.80;99.90;;;;;;6376571;22;20010;-93
2022/11/28 16:52:19;;;;;;;11.52;4.45;;;8.80;99.90;;;;;;6380256;22;20018;-93
2022/11/28 16:54:45;;;;;;;10.88;4.43;;;8.80;99.90;;;;;;6294163;22;20021;-92
2022/11/28 16:57:13;;;;;;;10.70;5.00;;;8.80;99.90;;;;;;6376016;22;20013;-94
2022/11/28 16:59:40;;;;;;;13.40;4.93;;;8.80;99.90;;;;;;6351077;22;20017;-93
2022/11/28 17:02:22;;;;;;;12.52;5.30;;;8.80;99.90;;;;;;6376656;22;20018;-94
2022/11/28 17:04:49;;;;;;;12.50;5.80;;;8.80;99.90;;;;;;6381238;22;19994;-89
2022/11/28 17:07:24;;;;;;;13.38;4.88;;;8.80;99.90;;;;;;6382124;22;20018;-93
2022/11/28 17:09:50;;;;;;;13.30;5.38;;;8.80;99.90;;;;;;6376644;22;20014;-93
2022/11/28 17:12:32;;;;;;;14.20;5.33;;;8.90;99.90;;;;;;6375949;22;20018;-91
2022/11/28 17:14:58;;;;;;;12.80;5.15;;;8.90;99.90;;;;;;6375956;22;20014;-92
2022/11/28 22:44:20;;;;;;;20.77;5.72;;;8.80;99.90;;;;;;6400330;22;20022;-91
2022/11/28 22:46:46;;;;;;;18.75;5.55;;;8.80;99.90;;;;;;6374972;22;20046;-94
2022/11/28 22:49:11;;;;;;;18.33;5.70;;;8.70;99.90;;;;;;6375053;22;20113;-92
2022/11/28 22:51:37;;;;;;;19.70;5.77;;;8.70;99.90;;;;;;6375304;22;20046;-92
2022/11/28 22:54:03;;;;;;;23.23;7.78;;;8.70;99.90;;;;;;6375056;22;20064;-91
2022/11/28 22:56:32;;;;;;;23.60;7.00;;;8.70;99.90;;;;;;6377134;22;20565;-91
2022/11/28 22:58:58;;;;;;;23.83;6.90;;;8.70;99.90;;;;;;6376725;22;20474;-90
2022/11/28 23:01:28;;;;;;;21.35;6.85;;;8.70;99.90;;;;;;6377466;22;20052;-91
2022/11/28 23:03:54;;;;;;;18.70;6.63;;;8.70;99.90;;;;;;6379051;22;20018;-91
2022/11/28 23:06:23;;;;;;;25.42;7.65;;;8.70;99.90;;;;;;6352408;22;20021;-93
2022/11/28 23:08:49;;;;;;;24.63;7.68;;;8.70;99.90;;;;;;6379088;22;20033;-92
2022/11/28 23:11:18;;;;;;;24.42;9.00;;;8.70;99.90;;;;;;6378734;22;20439;-93
2022/11/28 23:13:46;;;;;;;22.90;7.43;;;8.70;99.90;;;;;;6378689;22;20097;-92
2022/11/28 23:16:13;;;;;;;23.55;7.38;;;8.70;99.90;;;;;;6378301;22;20387;-92
2022/11/28 23:18:40;;;;;;;23.13;7.68;;;8.60;99.90;;;;;;6378029;22;20439;-96
